createdAt,value
2019-05-06T00:00:24.585Z,3.10
2019-05-06T00:02:54.547Z,3.50
2019-05-06T00:05:25.340Z,3.43
2019-05-06T00:07:54.358Z,3.40
2019-05-06T00:10:33.950Z,3.17
2019-05-06T00:13:01.874Z,3.23
2019-05-06T00:15:30.762Z,3.57
2019-05-06T00:17:59.210Z,3.43
2019-05-06T00:20:27.725Z,3.57
2019-05-06T00:22:57.749Z,3.50
2019-05-06T00:25:36.875Z,3.50
2019-05-06T00:28:09.555Z,3.50
2019-05-06T00:30:39.806Z,3.13
2019-05-06T00:33:08.177Z,3.67
2019-05-06T00:35:36.565Z,3.37
2019-05-06T00:38:04.936Z,3.30
2019-05-06T00:40:37.950Z,3.17
2019-05-06T00:43:07.942Z,3.60
2019-05-06T00:45:36.320Z,3.40
2019-05-06T00:48:04.872Z,3.10
2019-05-06T00:50:34.836Z,3.30
2019-05-06T00:53:05.053Z,3.50
2019-05-06T00:55:33.876Z,3.73
2019-05-06T00:58:04.040Z,3.63
2019-05-06T01:00:34.357Z,3.63
2019-05-06T01:03:14.423Z,3.20
2019-05-06T01:05:44.410Z,3.27
2019-05-06T01:08:14.179Z,3.50
2019-05-06T01:10:44.833Z,3.30
2019-05-06T01:13:24.194Z,3.30
2019-05-06T01:15:54.695Z,3.60
2019-05-06T01:18:24.468Z,3.80
2019-05-06T01:20:54.685Z,3.50
2019-05-06T01:23:23.515Z,3.73
2019-05-06T01:25:51.904Z,3.70
2019-05-06T01:28:20.276Z,3.67
2019-05-06T01:30:48.658Z,3.83
2019-05-06T01:33:17.047Z,4.10
2019-05-06T01:35:45.448Z,3.90
2019-05-06T01:38:27.291Z,3.73
2019-05-06T01:41:00.259Z,3.67
2019-05-06T01:43:30.280Z,3.80
2019-05-06T01:45:58.667Z,3.73
2019-05-06T01:48:45.040Z,3.60
2019-05-06T01:51:14.251Z,4.23
2019-05-06T01:53:44.755Z,3.83
2019-05-06T01:56:14.538Z,3.67
2019-05-06T01:58:43.956Z,3.90
2019-05-06T02:01:14.842Z,3.70
2019-05-06T02:03:44.205Z,3.40
2019-05-06T02:06:14.126Z,3.90
2019-05-06T02:08:44.836Z,3.63
2019-05-06T02:11:14.781Z,3.80
2019-05-06T02:13:44.243Z,3.50
2019-05-06T02:16:14.568Z,3.50
2019-05-06T02:18:44.883Z,3.50
2019-05-06T02:21:15.013Z,3.30
2019-05-06T02:23:53.425Z,3.33
2019-05-06T02:26:23.779Z,3.67
2019-05-06T02:28:54.463Z,3.30
2019-05-06T02:31:40.847Z,3.60
2019-05-06T02:34:31.866Z,3.70
2019-05-06T02:37:18.165Z,3.77
2019-05-06T02:39:46.545Z,3.60
2019-05-06T02:42:14.948Z,3.60
2019-05-06T02:44:44.233Z,3.60
2019-05-06T02:47:14.536Z,4.03
2019-05-06T02:49:53.492Z,3.83
2019-05-06T02:52:22.971Z,3.70
2019-05-06T02:54:53.391Z,4.00
2019-05-06T02:57:23.674Z,3.83
2019-05-06T02:59:54.828Z,4.10
2019-05-06T03:02:38.034Z,3.73
2019-05-06T03:04:52.858Z,4.00
2019-05-06T03:07:23.340Z,4.03
2019-05-06T03:09:53.269Z,5.30
2019-05-06T03:12:22.898Z,5.00
2019-05-06T03:14:53.336Z,4.73
2019-05-06T03:17:23.433Z,3.97
2019-05-06T03:19:53.277Z,4.00
2019-05-06T03:22:27.764Z,3.77
2019-05-06T03:24:57.846Z,4.20
2019-05-06T03:27:26.226Z,3.67
2019-05-06T03:29:54.618Z,4.20
2019-05-06T03:32:30.271Z,4.07
2019-05-06T03:35:16.566Z,3.80
2019-05-06T03:37:23.962Z,3.80
2019-05-06T03:39:53.079Z,3.63
2019-05-06T03:42:23.056Z,3.40
2019-05-06T03:44:53.596Z,3.40
2019-05-06T03:47:26.737Z,3.33
2019-05-06T03:49:55.123Z,3.50
2019-05-06T03:52:25.029Z,3.63
2019-05-06T03:54:54.847Z,3.40
2019-05-06T03:57:24.053Z,3.60
2019-05-06T03:59:53.279Z,3.77
2019-05-06T04:02:24.060Z,3.40
2019-05-06T04:04:55.862Z,3.60
2019-05-06T04:07:23.387Z,3.20
2019-05-06T04:09:53.442Z,3.20
2019-05-06T04:12:23.726Z,3.30
2019-05-06T04:14:53.939Z,3.40
2019-05-06T04:17:28.359Z,3.47
2019-05-06T04:19:58.534Z,3.40
2019-05-06T04:22:29.240Z,3.67
2019-05-06T04:25:05.249Z,3.30
2019-05-06T04:27:54.178Z,3.70
2019-05-06T04:30:24.404Z,3.47
2019-05-06T04:32:53.319Z,3.30
2019-05-06T04:35:22.964Z,3.60
2019-05-06T04:37:53.866Z,3.60
2019-05-06T04:40:23.851Z,3.60
2019-05-06T04:42:52.826Z,3.30
2019-05-06T04:45:23.604Z,3.93
2019-05-06T04:47:53.841Z,4.10
2019-05-06T04:50:24.270Z,3.70
2019-05-06T04:52:56.327Z,3.83
2019-05-06T04:55:24.891Z,3.90
2019-05-06T04:57:54.443Z,4.50
2019-05-06T05:00:23.410Z,4.17
2019-05-06T05:02:54.783Z,4.20
2019-05-06T05:05:23.178Z,4.20
2019-05-06T05:07:52.976Z,3.87
2019-05-06T05:10:25.559Z,4.07
2019-05-06T05:13:12.537Z,4.20
2019-05-06T05:15:42.742Z,4.60
2019-05-06T05:18:13.062Z,3.90
2019-05-06T05:20:46.383Z,4.20
2019-05-06T05:23:12.043Z,3.80
2019-05-06T05:25:42.418Z,3.83
2019-05-06T05:28:13.089Z,4.42
2019-05-06T05:30:42.935Z,3.90
2019-05-06T05:33:12.288Z,3.80
2019-05-06T05:35:43.095Z,3.50
2019-05-06T05:38:13.081Z,3.73
2019-05-06T05:40:43.011Z,4.00
2019-05-06T05:43:15.933Z,3.80
2019-05-06T05:45:44.488Z,3.97
2019-05-06T05:48:17.689Z,3.87
2019-05-06T05:50:46.074Z,4.03
2019-05-06T05:53:14.448Z,3.73
2019-05-06T05:55:42.992Z,3.63
2019-05-06T05:58:12.967Z,4.60
2019-05-06T06:00:42.603Z,3.93
2019-05-06T06:03:12.673Z,4.07
2019-05-06T06:05:43.145Z,3.60
2019-05-06T06:08:12.966Z,3.60
2019-05-06T06:10:52.640Z,3.33
2019-05-06T06:13:22.267Z,3.30
2019-05-06T06:15:54.874Z,3.40
2019-05-06T06:18:27.956Z,3.90
2019-05-06T06:21:20.778Z,4.20
2019-05-06T06:23:46.106Z,3.87
2019-05-06T06:26:14.492Z,4.10
2019-05-06T06:28:42.885Z,4.00
2019-05-06T06:31:13.079Z,3.80
2019-05-06T06:33:42.889Z,3.70
2019-05-06T06:36:32.505Z,3.40
2019-05-06T06:39:18.593Z,3.53
2019-05-06T06:41:46.984Z,3.80
2019-05-06T06:44:23.594Z,3.33
2019-05-06T06:46:52.503Z,3.33
2019-05-06T06:49:22.265Z,3.10
2019-05-06T06:51:53.173Z,4.60
2019-05-06T06:54:22.861Z,3.10
2019-05-06T06:57:06.195Z,2.95
2019-05-06T06:59:36.942Z,3.13
2019-05-06T07:02:12.939Z,2.63
2019-05-06T07:04:43.176Z,3.10
2019-05-06T07:07:13.145Z,3.10
2019-05-06T07:09:41.997Z,2.80
2019-05-06T07:12:13.044Z,2.93
2019-05-06T07:14:42.696Z,3.23
2019-05-06T07:17:13.189Z,2.90
2019-05-06T07:19:48.389Z,2.77
2019-05-06T07:22:16.745Z,3.37
2019-05-06T07:24:45.119Z,2.80
2019-05-06T07:27:17.565Z,2.97
2019-05-06T07:29:48.683Z,3.00
2019-05-06T07:32:17.076Z,3.13
2019-05-06T07:34:45.527Z,2.80
2019-05-06T07:37:13.908Z,2.60
2019-05-06T07:39:43.173Z,2.90
2019-05-06T07:42:13.322Z,2.60
2019-05-06T07:44:45.758Z,2.90
2019-05-06T07:47:15.905Z,2.77
2019-05-06T07:49:44.247Z,3.17
2019-05-06T07:52:12.646Z,3.37
2019-05-06T07:54:42.436Z,3.20
2019-05-06T07:57:12.774Z,3.63
2019-05-06T07:59:42.880Z,3.50
2019-05-06T08:02:13.072Z,3.77
2019-05-06T08:04:42.063Z,3.80
2019-05-06T08:07:12.605Z,3.73
2019-05-06T08:09:42.221Z,3.40
2019-05-06T08:12:12.367Z,3.63
2019-05-06T08:14:42.982Z,3.37
2019-05-06T08:17:14.738Z,3.30
2019-05-06T08:19:43.152Z,3.60
2019-05-06T08:22:22.721Z,3.40
2019-05-06T08:24:53.180Z,3.30
2019-05-06T08:27:22.764Z,3.70
2019-05-06T08:29:52.641Z,3.03
2019-05-06T08:32:22.817Z,3.00
2019-05-06T08:34:52.395Z,3.17
2019-05-06T08:37:25.423Z,3.30
2019-05-06T08:39:53.864Z,3.77
2019-05-06T08:42:22.491Z,3.40
2019-05-06T08:44:53.079Z,3.20
2019-05-06T08:47:22.326Z,3.60
2019-05-06T08:50:07.962Z,2.97
2019-05-06T08:52:42.486Z,3.13
2019-05-06T08:55:12.601Z,3.10
2019-05-06T08:57:42.048Z,2.80
2019-05-06T09:00:12.748Z,2.90
2019-05-06T09:02:42.516Z,2.70
2019-05-06T09:05:12.202Z,2.70
2019-05-06T09:07:42.892Z,2.53
2019-05-06T09:10:13.063Z,2.40
2019-05-06T09:12:42.540Z,2.60
2019-05-06T09:15:12.551Z,2.63
2019-05-06T09:17:42.036Z,2.40
2019-05-06T09:20:12.912Z,2.37
2019-05-06T09:22:42.910Z,2.53
2019-05-06T09:25:12.885Z,2.10
2019-05-06T09:27:48.910Z,2.00
2019-05-06T09:30:22.940Z,2.57
2019-05-06T09:32:52.116Z,2.07
2019-05-06T09:35:22.205Z,2.10
2019-05-06T09:37:53.271Z,2.20
2019-05-06T09:40:22.755Z,2.30
2019-05-06T09:42:52.081Z,2.00
2019-05-06T09:45:22.677Z,2.30
2019-05-06T09:47:57.973Z,2.00
2019-05-06T09:50:38.972Z,2.10
2019-05-06T09:53:09.162Z,2.73
2019-05-06T09:55:45.105Z,2.80
2019-05-06T09:58:14.576Z,4.73
2019-05-06T10:00:44.765Z,2.67
2019-05-06T10:03:14.140Z,4.77
2019-05-06T10:05:42.674Z,4.00
2019-05-06T10:08:12.425Z,2.80
2019-05-06T10:10:55.257Z,2.80
2019-05-06T10:13:12.850Z,2.73
2019-05-06T10:15:42.932Z,2.37
2019-05-06T10:18:13.223Z,2.60
2019-05-06T10:20:44.376Z,2.40
2019-05-06T10:23:13.936Z,2.80
2019-05-06T10:25:43.746Z,3.63
2019-05-06T10:28:16.014Z,2.77
2019-05-06T10:30:44.401Z,2.80
2019-05-06T10:33:14.435Z,2.50
2019-05-06T10:35:42.986Z,2.80
2019-05-06T10:38:36.874Z,2.30
2019-05-06T10:41:12.883Z,2.30
2019-05-06T10:43:44.143Z,2.40
2019-05-06T10:46:13.148Z,2.80
2019-05-06T10:48:42.387Z,2.50
2019-05-06T10:51:18.227Z,2.63
2019-05-06T10:53:46.669Z,2.70
2019-05-06T10:56:28.524Z,2.50
2019-05-06T10:58:58.708Z,2.60
2019-05-06T11:01:28.751Z,3.00
2019-05-06T11:03:57.172Z,2.43
2019-05-06T11:06:25.564Z,2.63
2019-05-06T11:08:53.975Z,2.60
2019-05-06T11:11:32.734Z,3.37
2019-05-06T11:13:52.647Z,2.80
2019-05-06T11:16:23.707Z,2.50
2019-05-06T11:18:53.537Z,3.17
2019-05-06T11:21:22.684Z,3.30
2019-05-06T11:23:52.642Z,2.87
2019-05-06T11:26:23.553Z,2.40
2019-05-06T11:29:05.061Z,2.80
2019-05-06T11:31:39.341Z,2.87
2019-05-06T11:34:27.467Z,3.30
2019-05-06T11:37:14.965Z,3.00
2019-05-06T11:39:43.651Z,3.30
2019-05-06T11:42:27.533Z,3.20
2019-05-06T11:44:44.198Z,3.30
2019-05-06T11:47:12.743Z,3.50
2019-05-06T11:49:43.915Z,3.37
2019-05-06T11:52:13.001Z,3.60
2019-05-06T11:54:42.275Z,3.60
2019-05-06T11:57:13.318Z,3.90
2019-05-06T11:59:44.103Z,3.47
2019-05-06T12:02:15.472Z,3.63
2019-05-06T12:04:43.861Z,3.67
2019-05-06T12:07:18.508Z,3.40
2019-05-06T12:09:48.215Z,3.60
2019-05-06T12:12:16.934Z,3.50
2019-05-06T12:14:46.916Z,3.50
2019-05-06T12:17:17.687Z,4.07
2019-05-06T12:19:49.481Z,4.00
2019-05-06T12:22:22.166Z,3.97
2019-05-06T12:24:54.035Z,4.20
2019-05-06T12:27:43.445Z,4.67
2019-05-06T12:30:16.450Z,4.10
2019-05-06T12:32:57.723Z,4.53
2019-05-06T12:35:28.442Z,4.93
2019-05-06T12:37:59.737Z,4.20
2019-05-06T12:40:32.087Z,4.43
2019-05-06T12:43:24.116Z,4.10
2019-05-06T12:46:06.789Z,4.27
2019-05-06T12:48:39.277Z,4.10
2019-05-06T12:51:07.743Z,4.40
2019-05-06T12:53:39.244Z,4.73
2019-05-06T12:56:12.264Z,4.77
2019-05-06T12:58:44.298Z,4.67
2019-05-06T13:01:16.929Z,4.73
2019-05-06T13:03:45.431Z,4.30
2019-05-06T13:06:16.285Z,4.43
2019-05-06T13:08:56.642Z,4.70
2019-05-06T13:11:18.924Z,4.30
2019-05-06T13:13:57.430Z,4.37
2019-05-06T13:16:22.700Z,4.73
2019-05-06T13:18:54.927Z,4.87
2019-05-06T13:21:23.510Z,4.87
2019-05-06T13:23:58.417Z,4.13
2019-05-06T13:26:26.776Z,3.70
2019-05-06T13:28:56.936Z,3.70
2019-05-06T13:31:25.900Z,4.40
2019-05-06T13:33:57.195Z,3.80
2019-05-06T13:36:25.984Z,3.60
2019-05-06T13:39:09.430Z,3.17
2019-05-06T13:41:26.027Z,3.67
2019-05-06T13:43:57.007Z,3.97
2019-05-06T13:46:27.982Z,3.40
2019-05-06T13:49:03.971Z,3.30
2019-05-06T13:51:35.960Z,4.33
2019-05-06T13:54:04.438Z,3.33
2019-05-06T13:56:34.872Z,3.30
2019-05-06T13:59:05.014Z,3.90
2019-05-06T14:01:44.363Z,4.17
2019-05-06T14:04:14.521Z,4.23
2019-05-06T14:06:43.356Z,4.53
2019-05-06T14:09:27.627Z,4.63
2019-05-06T14:11:42.158Z,4.60
2019-05-06T14:14:12.586Z,4.77
2019-05-06T14:16:44.373Z,4.07
2019-05-06T14:19:13.309Z,3.40
2019-05-06T14:21:43.384Z,3.57
2019-05-06T14:24:17.893Z,3.80
2019-05-06T14:26:48.605Z,3.80
2019-05-06T14:29:38.326Z,4.20
2019-05-06T14:32:08.131Z,3.70
2019-05-06T14:34:40.222Z,4.27
2019-05-06T14:37:12.359Z,4.97
2019-05-06T14:39:54.022Z,3.90
2019-05-06T14:42:18.693Z,4.20
2019-05-06T14:44:50.413Z,4.30
2019-05-06T14:47:20.455Z,4.30
2019-05-06T14:49:48.870Z,3.97
2019-05-06T14:52:17.325Z,4.50
2019-05-06T14:54:50.168Z,3.83
2019-05-06T14:57:19.930Z,3.90
2019-05-06T14:59:51.101Z,3.90
2019-05-06T15:02:25.223Z,4.10
2019-05-06T15:04:53.331Z,3.97
2019-05-06T15:07:24.103Z,4.00
2019-05-06T15:10:14.673Z,3.87
2019-05-06T15:12:24.835Z,3.70
2019-05-06T15:14:53.285Z,4.37
2019-05-06T15:17:22.852Z,4.10
2019-05-06T15:19:52.486Z,4.00
2019-05-06T15:22:24.561Z,4.20
2019-05-06T15:24:53.788Z,3.80
2019-05-06T15:27:22.957Z,4.27
2019-05-06T15:29:53.857Z,4.60
2019-05-06T15:32:32.655Z,4.47
2019-05-06T15:35:05.457Z,4.47
2019-05-06T15:37:38.211Z,3.60
2019-05-06T15:40:08.705Z,4.03
2019-05-06T15:42:37.133Z,3.77
2019-05-06T15:45:06.906Z,4.40
2019-05-06T15:47:35.415Z,4.42
2019-05-06T15:50:04.739Z,4.60
2019-05-06T15:52:33.189Z,4.20
2019-05-06T15:55:03.280Z,4.50
2019-05-06T15:57:32.794Z,3.90
2019-05-06T16:00:22.604Z,4.07
2019-05-06T16:02:53.016Z,4.83
2019-05-06T16:05:26.235Z,4.67
2019-05-06T16:07:52.854Z,4.70
2019-05-06T16:10:22.552Z,4.70
2019-05-06T16:12:53.480Z,4.60
2019-05-06T16:15:24.494Z,4.97
2019-05-06T16:17:52.948Z,5.00
2019-05-06T16:20:22.250Z,5.03
2019-05-06T16:22:52.403Z,5.73
2019-05-06T16:25:21.820Z,5.60
2019-05-06T16:27:54.504Z,5.70
2019-05-06T16:30:24.499Z,6.13
2019-05-06T16:32:52.775Z,6.43
2019-05-06T16:35:22.837Z,5.67
2019-05-06T16:37:51.426Z,6.15
2019-05-06T16:40:20.158Z,6.23
2019-05-06T16:42:48.554Z,6.03
2019-05-06T16:45:18.813Z,6.00
2019-05-06T16:47:47.475Z,5.90
2019-05-06T16:50:18.522Z,6.33
2019-05-06T16:52:46.906Z,5.93
2019-05-06T16:55:17.884Z,5.30
2019-05-06T16:57:47.980Z,5.70
2019-05-06T17:00:18.132Z,6.10
2019-05-06T17:02:56.860Z,6.27
2019-05-06T17:05:22.864Z,6.43
2019-05-06T17:07:52.829Z,6.17
2019-05-06T17:10:22.760Z,6.10
2019-05-06T17:12:53.381Z,6.27
2019-05-06T17:15:23.029Z,6.63
2019-05-06T17:17:53.131Z,6.10
2019-05-06T17:20:22.758Z,6.40
2019-05-06T17:22:53.174Z,5.70
2019-05-06T17:25:22.420Z,5.53
2019-05-06T17:27:52.687Z,6.23
2019-05-06T17:30:22.891Z,5.60
2019-05-06T17:32:55.563Z,6.03
2019-05-06T17:35:23.960Z,6.13
2019-05-06T17:38:02.709Z,5.47
2019-05-06T17:40:32.359Z,6.00
2019-05-06T17:43:02.542Z,6.13
2019-05-06T17:46:01.145Z,5.47
2019-05-06T17:48:19.688Z,5.43
2019-05-06T17:50:55.523Z,5.37
2019-05-06T17:53:23.919Z,6.00
2019-05-06T17:55:52.705Z,6.10
2019-05-06T17:58:22.056Z,5.63
2019-05-06T18:00:52.231Z,6.17
2019-05-06T18:03:20.639Z,6.30
2019-05-06T18:05:49.000Z,6.13
2019-05-06T18:08:17.402Z,5.47
2019-05-06T18:10:45.802Z,5.43
2019-05-06T18:13:14.190Z,5.80
2019-05-06T18:15:43.204Z,5.30
2019-05-06T18:18:12.997Z,5.80
2019-05-06T18:20:42.698Z,5.07
2019-05-06T18:23:12.946Z,5.23
2019-05-06T18:25:43.063Z,5.27
2019-05-06T18:28:12.256Z,5.20
2019-05-06T18:30:40.727Z,5.00
2019-05-06T18:33:09.112Z,5.27
2019-05-06T18:35:37.597Z,5.20
2019-05-06T18:38:06.122Z,5.40
2019-05-06T18:40:34.576Z,6.07
2019-05-06T18:43:03.002Z,5.65
2019-05-06T18:45:33.295Z,5.83
2019-05-06T18:48:02.766Z,5.27
2019-05-06T18:50:31.416Z,5.40
2019-05-06T18:52:59.851Z,5.70
2019-05-06T18:55:33.331Z,5.80
2019-05-06T18:58:02.373Z,5.80
2019-05-06T19:00:32.001Z,5.83
2019-05-06T19:03:02.593Z,5.30
2019-05-06T19:05:43.815Z,5.20
2019-05-06T19:08:22.882Z,5.33
2019-05-06T19:10:53.196Z,6.00
2019-05-06T19:13:22.378Z,5.73
2019-05-06T19:15:52.617Z,5.87
2019-05-06T19:18:22.452Z,5.70
2019-05-06T19:20:52.963Z,6.60
2019-05-06T19:23:22.514Z,5.87
2019-05-06T19:25:51.935Z,5.50
2019-05-06T19:28:21.990Z,5.70
2019-05-06T19:31:02.964Z,6.03
2019-05-06T19:33:34.118Z,5.70
2019-05-06T19:36:03.069Z,6.13
2019-05-06T19:38:33.518Z,6.50
2019-05-06T19:41:02.080Z,6.17
2019-05-06T19:43:32.889Z,6.00
2019-05-06T19:46:02.565Z,5.80
2019-05-06T19:48:32.847Z,6.37
2019-05-06T19:51:03.071Z,5.90
2019-05-06T19:53:32.388Z,6.23
2019-05-06T19:56:02.800Z,6.27
2019-05-06T19:58:36.653Z,5.50
2019-05-06T20:01:05.378Z,6.40
2019-05-06T20:03:33.754Z,5.93
2019-05-06T20:06:06.456Z,5.90
2019-05-06T20:08:36.486Z,6.30
2019-05-06T20:11:06.508Z,5.77
2019-05-06T20:13:34.895Z,5.90
2019-05-06T20:16:03.288Z,5.77
2019-05-06T20:18:32.838Z,5.97
2019-05-06T20:21:01.343Z,6.50
2019-05-06T20:23:29.728Z,7.17
2019-05-06T20:25:58.119Z,7.80
2019-05-06T20:28:26.494Z,7.50
2019-05-06T20:30:54.874Z,7.50
2019-05-06T20:33:23.256Z,7.70
2019-05-06T20:35:52.561Z,7.27
2019-05-06T20:38:23.091Z,7.40
2019-05-06T20:40:51.118Z,6.87
2019-05-06T20:43:23.129Z,7.30
2019-05-06T20:45:51.988Z,7.00
2019-05-06T20:48:19.792Z,7.00
2019-05-06T20:50:48.186Z,7.53
2019-05-06T20:53:16.574Z,7.40
2019-05-06T20:55:44.960Z,7.23
2019-05-06T20:58:13.368Z,7.50
2019-05-06T21:00:42.918Z,7.10
2019-05-06T21:03:12.291Z,7.33
2019-05-06T21:05:43.218Z,7.50
2019-05-06T21:08:12.929Z,7.33
2019-05-06T21:10:42.473Z,7.93
2019-05-06T21:13:13.087Z,7.73
2019-05-06T21:15:43.232Z,7.43
2019-05-06T21:18:12.220Z,7.57
2019-05-06T21:20:40.770Z,7.40
2019-05-06T21:23:09.207Z,7.53
2019-05-06T21:25:37.653Z,7.50
2019-05-06T21:28:06.036Z,8.77
2019-05-06T21:30:34.430Z,7.67
2019-05-06T21:33:02.823Z,7.53
2019-05-06T21:35:33.221Z,7.70
2019-05-06T21:38:02.539Z,8.13
2019-05-06T21:40:32.275Z,7.43
2019-05-06T21:43:02.122Z,7.77
2019-05-06T21:45:32.897Z,8.20
2019-05-06T21:48:02.756Z,8.07
2019-05-06T21:50:33.119Z,8.27
2019-05-06T21:53:02.781Z,8.20
2019-05-06T21:55:32.363Z,8.37
2019-05-06T21:58:02.173Z,7.83
2019-05-06T22:00:38.620Z,7.73
2019-05-06T22:03:07.034Z,7.70
2019-05-06T22:05:35.445Z,8.30
2019-05-06T22:08:03.880Z,8.07
2019-05-06T22:10:32.582Z,8.63
2019-05-06T22:13:00.986Z,8.87
2019-05-06T22:15:29.407Z,8.80
2019-05-06T22:17:57.816Z,8.93
2019-05-06T22:20:26.244Z,8.87
2019-05-06T22:22:54.627Z,8.70
2019-05-06T22:25:23.030Z,9.30
2019-05-06T22:27:52.017Z,8.80
2019-05-06T22:30:23.625Z,9.00
2019-05-06T22:32:52.734Z,10.10
2019-05-06T22:35:22.905Z,9.20
2019-05-06T22:37:52.969Z,9.53
2019-05-06T22:40:23.493Z,10.20
2019-05-06T22:42:52.758Z,10.70
2019-05-06T22:45:22.220Z,10.13
2019-05-06T22:47:50.750Z,9.47
2019-05-06T22:50:19.225Z,10.60
2019-05-06T22:52:47.647Z,9.90
2019-05-06T22:55:16.168Z,9.90
2019-05-06T22:57:44.576Z,9.67
2019-05-06T23:00:16.021Z,9.57
2019-05-06T23:02:46.098Z,9.47
2019-05-06T23:05:14.642Z,9.80
2019-05-06T23:07:43.071Z,9.87
2019-05-06T23:10:11.660Z,10.60
2019-05-06T23:12:40.049Z,10.30
2019-05-06T23:15:08.684Z,10.40
2019-05-06T23:17:37.091Z,10.20
2019-05-06T23:20:05.957Z,10.17
2019-05-06T23:22:34.386Z,9.20
2019-05-06T23:25:02.848Z,9.77
2019-05-06T23:27:31.242Z,9.50
2019-05-06T23:29:59.629Z,9.70
2019-05-06T23:32:28.063Z,9.97
2019-05-06T23:34:56.456Z,8.97
2019-05-06T23:37:23.738Z,10.00
2019-05-06T23:40:30.077Z,9.20
2019-05-06T23:43:34.626Z,8.60
2019-05-06T23:46:39.167Z,9.30
2019-05-06T23:49:43.897Z,10.63
2019-05-06T23:52:48.823Z,10.07
2019-05-06T23:55:53.518Z,10.00
2019-05-06T23:58:22.492Z,9.27
